createdAt,value
2023-04-26T00:01:38.314Z,2.70
2023-04-26T00:04:05.829Z,2.60
2023-04-26T00:06:33.532Z,3.03
2023-04-26T00:09:00.662Z,2.78
2023-04-26T00:11:27.791Z,2.90
2023-04-26T00:13:55.280Z,2.75
2023-04-26T00:16:22.570Z,3.20
2023-04-26T00:18:50.627Z,3.00
2023-04-26T00:21:18.001Z,3.10
2023-04-26T00:23:45.642Z,3.05
2023-04-26T00:26:12.761Z,3.03
2023-04-26T00:28:39.844Z,2.97
2023-04-26T00:31:07.411Z,3.22
2023-04-26T00:33:34.540Z,2.90
2023-04-26T00:36:01.822Z,2.85
2023-04-26T00:38:28.924Z,2.88
2023-04-26T00:40:56.018Z,2.83
2023-04-26T00:43:23.217Z,3.10
2023-04-26T00:45:50.478Z,3.20
2023-04-26T00:48:18.576Z,3.15
2023-04-26T00:50:47.694Z,2.75
2023-04-26T00:53:15.741Z,3.00
2023-04-26T00:55:43.124Z,2.80
2023-04-26T00:58:10.276Z,2.78
2023-04-26T01:00:37.421Z,3.25
2023-04-26T01:03:04.886Z,3.05
2023-04-26T01:05:32.152Z,3.15
2023-04-26T01:08:02.335Z,3.20
2023-04-26T01:10:29.626Z,3.25
2023-04-26T01:12:57.967Z,3.17
2023-04-26T01:15:25.688Z,3.80
2023-04-26T01:17:52.803Z,3.47
2023-04-26T01:20:20.225Z,3.30
2023-04-26T01:22:47.334Z,3.20
2023-04-26T01:25:14.508Z,3.40
2023-04-26T01:27:41.878Z,3.00
2023-04-26T01:30:09.784Z,3.03
2023-04-26T01:32:37.318Z,3.40
2023-04-26T01:35:05.718Z,3.15
2023-04-26T01:37:32.880Z,3.17
2023-04-26T01:40:00.003Z,3.40
2023-04-26T01:42:27.283Z,3.15
2023-04-26T01:44:54.653Z,3.38
2023-04-26T01:47:21.869Z,3.83
2023-04-26T01:49:49.043Z,3.30
2023-04-26T01:52:16.768Z,3.03
2023-04-26T01:54:44.075Z,3.60
2023-04-26T01:57:11.339Z,3.70
2023-04-26T01:59:38.488Z,3.50
2023-04-26T02:02:05.780Z,3.78
2023-04-26T02:04:33.281Z,3.67
2023-04-26T02:07:00.617Z,3.50
2023-04-26T02:09:27.888Z,3.28
2023-04-26T02:11:55.034Z,3.08
2023-04-26T02:14:22.300Z,3.42
2023-04-26T02:16:49.456Z,3.38
2023-04-26T02:19:16.659Z,3.60
2023-04-26T02:21:53.994Z,3.38
2023-04-26T02:24:22.115Z,3.72
2023-04-26T02:26:49.357Z,3.20
2023-04-26T02:29:16.714Z,3.67
2023-04-26T02:31:43.884Z,3.50
2023-04-26T02:34:11.476Z,3.53
2023-04-26T02:36:38.605Z,3.50
2023-04-26T02:39:05.831Z,4.45
2023-04-26T02:41:33.634Z,3.75
2023-04-26T02:44:00.816Z,4.75
2023-04-26T02:46:28.292Z,3.95
2023-04-26T02:48:55.680Z,3.47
2023-04-26T02:51:23.111Z,3.45
2023-04-26T02:53:50.238Z,3.78
2023-04-26T02:56:17.385Z,3.60
2023-04-26T02:58:44.882Z,3.72
2023-04-26T03:01:13.279Z,4.05
2023-04-26T03:03:40.596Z,3.80
2023-04-26T03:06:08.351Z,3.58
2023-04-26T03:08:36.856Z,3.50
2023-04-26T03:11:04.424Z,4.32
2023-04-26T03:13:32.014Z,3.83
2023-04-26T03:15:59.357Z,3.70
2023-04-26T03:18:26.508Z,3.78
2023-04-26T03:20:53.691Z,3.45
2023-04-26T03:23:24.405Z,3.85
2023-04-26T03:25:52.024Z,4.00
2023-04-26T03:28:19.279Z,3.60
2023-04-26T03:30:46.544Z,3.90
2023-04-26T03:33:13.857Z,4.25
2023-04-26T03:35:41.316Z,4.15
2023-04-26T03:38:08.407Z,4.82
2023-04-26T03:40:35.653Z,3.83
2023-04-26T03:43:03.021Z,4.55
2023-04-26T03:45:30.243Z,4.60
2023-04-26T03:47:57.489Z,3.83
2023-04-26T03:50:24.955Z,4.43
2023-04-26T03:52:52.159Z,4.43
2023-04-26T03:55:19.363Z,4.85
2023-04-26T03:57:46.457Z,5.03
2023-04-26T04:00:14.488Z,4.35
2023-04-26T04:02:42.279Z,4.55
2023-04-26T04:05:10.154Z,4.75
2023-04-26T04:07:37.511Z,4.15
2023-04-26T04:10:04.956Z,4.80
2023-04-26T04:12:33.808Z,4.93
2023-04-26T04:15:00.958Z,4.03
2023-04-26T04:17:28.181Z,4.35
2023-04-26T04:19:55.554Z,5.13
2023-04-26T04:22:22.742Z,4.57
2023-04-26T04:24:49.968Z,4.40
2023-04-26T04:27:17.067Z,3.95
2023-04-26T04:29:44.244Z,4.40
2023-04-26T04:32:13.751Z,4.72
2023-04-26T04:34:41.707Z,4.00
2023-04-26T04:37:09.748Z,4.47
2023-04-26T04:39:36.910Z,4.50
2023-04-26T04:42:04.407Z,4.03
2023-04-26T04:44:31.594Z,3.80
2023-04-26T04:46:58.841Z,4.28
2023-04-26T04:49:26.186Z,4.00
2023-04-26T04:51:53.593Z,4.35
2023-04-26T04:54:20.835Z,4.22
2023-04-26T04:56:48.191Z,4.63
2023-04-26T04:59:15.533Z,5.03
2023-04-26T05:01:42.830Z,4.47
2023-04-26T05:04:10.206Z,4.70
2023-04-26T05:06:37.530Z,5.07
2023-04-26T05:09:05.924Z,5.20
2023-04-26T05:11:33.269Z,5.38
2023-04-26T05:14:00.632Z,5.25
2023-04-26T05:16:27.976Z,5.13
2023-04-26T05:18:55.171Z,5.20
2023-04-26T05:21:23.588Z,5.35
2023-04-26T05:23:51.119Z,4.97
2023-04-26T05:26:18.691Z,5.60
2023-04-26T05:28:45.941Z,5.40
2023-04-26T05:31:13.226Z,5.88
2023-04-26T05:33:40.428Z,5.78
2023-04-26T05:36:09.264Z,5.40
2023-04-26T05:38:40.212Z,5.40
2023-04-26T05:41:07.569Z,5.78
2023-04-26T05:43:35.394Z,5.72
2023-04-26T05:46:02.712Z,5.72
2023-04-26T05:48:29.983Z,5.65
2023-04-26T05:50:57.189Z,5.80
2023-04-26T05:53:24.374Z,5.72
2023-04-26T05:55:51.700Z,6.10
2023-04-26T05:58:18.899Z,7.13
2023-04-26T06:00:46.097Z,7.82
2023-04-26T06:03:13.472Z,7.00
2023-04-26T06:05:41.444Z,6.40
2023-04-26T06:08:08.825Z,7.13
2023-04-26T06:10:38.880Z,6.50
2023-04-26T06:13:06.277Z,6.70
2023-04-26T06:15:34.065Z,6.75
2023-04-26T06:18:01.295Z,6.53
2023-04-26T06:20:28.521Z,6.18
2023-04-26T06:22:55.697Z,5.65
2023-04-26T06:25:23.214Z,5.47
2023-04-26T06:27:50.388Z,5.63
2023-04-26T06:30:17.594Z,5.03
2023-04-26T06:32:44.799Z,4.00
2023-04-26T06:35:12.038Z,3.70
2023-04-26T06:37:39.988Z,3.75
2023-04-26T06:40:07.489Z,3.92
2023-04-26T06:42:34.733Z,3.88
2023-04-26T06:45:02.245Z,3.50
2023-04-26T06:47:29.725Z,3.85
2023-04-26T06:49:57.069Z,3.97
2023-04-26T06:52:24.294Z,4.40
2023-04-26T06:54:57.034Z,4.00
2023-04-26T06:57:25.074Z,3.88
2023-04-26T06:59:52.294Z,3.40
2023-04-26T07:02:19.601Z,3.85
2023-04-26T07:04:47.345Z,3.90
2023-04-26T07:07:16.569Z,3.50
2023-04-26T07:09:44.016Z,3.40
2023-04-26T07:12:14.815Z,3.17
2023-04-26T07:14:43.453Z,3.20
2023-04-26T07:17:11.758Z,3.35
2023-04-26T07:19:39.114Z,2.85
2023-04-26T07:22:06.450Z,3.20
2023-04-26T07:24:33.735Z,2.45
2023-04-26T07:27:01.220Z,2.40
2023-04-26T07:29:28.640Z,2.53
2023-04-26T07:31:57.061Z,2.10
2023-04-26T07:34:24.328Z,2.17
2023-04-26T07:36:51.802Z,2.13
2023-04-26T07:39:18.993Z,2.35
2023-04-26T07:41:48.317Z,1.90
2023-04-26T07:44:15.774Z,2.60
2023-04-26T07:46:42.963Z,1.70
2023-04-26T07:49:10.345Z,2.33
2023-04-26T07:51:37.494Z,2.20
2023-04-26T07:54:04.759Z,2.20
2023-04-26T07:56:31.945Z,2.28
2023-04-26T07:58:59.233Z,2.20
2023-04-26T08:01:26.996Z,1.90
2023-04-26T08:03:55.738Z,2.00
2023-04-26T08:06:23.288Z,2.05
2023-04-26T08:08:53.041Z,2.33
2023-04-26T08:11:20.217Z,2.33
2023-04-26T08:13:47.540Z,1.80
2023-04-26T08:16:14.718Z,1.95
2023-04-26T08:18:43.441Z,2.55
2023-04-26T08:21:12.721Z,2.15
2023-04-26T08:23:39.989Z,2.13
2023-04-26T08:26:07.348Z,2.20
2023-04-26T08:28:35.836Z,1.83
2023-04-26T08:31:03.317Z,2.08
2023-04-26T08:33:30.660Z,2.20
2023-04-26T08:36:01.200Z,1.95
2023-04-26T08:38:30.207Z,1.98
2023-04-26T08:41:01.929Z,1.63
2023-04-26T08:43:29.777Z,2.17
2023-04-26T08:45:58.560Z,2.13
2023-04-26T08:50:54.469Z,1.20
2023-04-26T08:53:21.696Z,1.15
2023-04-26T08:55:52.117Z,1.30
2023-04-26T08:58:19.650Z,1.35
2023-04-26T09:00:46.924Z,1.30
2023-04-26T09:03:14.518Z,1.33
2023-04-26T09:05:46.250Z,1.13
2023-04-26T09:08:18.319Z,1.23
2023-04-26T09:10:46.360Z,1.45
2023-04-26T09:13:14.539Z,1.30
2023-04-26T09:15:42.291Z,1.20
2023-04-26T09:18:22.384Z,1.42
2023-04-26T09:21:08.565Z,1.40
2023-04-26T09:23:35.925Z,1.38
2023-04-26T09:26:22.602Z,1.35
2023-04-26T09:28:50.730Z,1.40
2023-04-26T09:31:39.225Z,1.20
2023-04-26T09:34:06.689Z,1.20
2023-04-26T09:36:33.825Z,1.65
2023-04-26T09:39:01.162Z,1.20
2023-04-26T09:41:43.878Z,1.40
2023-04-26T09:44:23.853Z,1.10
2023-04-26T09:47:00.791Z,1.27
2023-04-26T09:49:28.730Z,1.08
2023-04-26T09:52:02.987Z,1.30
2023-04-26T09:54:44.239Z,1.25
2023-04-26T09:57:13.105Z,1.50
2023-04-26T09:59:44.486Z,1.63
2023-04-26T10:02:15.219Z,1.13
2023-04-26T10:04:44.626Z,1.10
2023-04-26T10:07:13.029Z,1.10
2023-04-26T10:09:40.807Z,1.40
2023-04-26T10:12:08.137Z,1.35
2023-04-26T10:14:35.763Z,1.27
2023-04-26T10:17:04.683Z,1.35
2023-04-26T10:19:32.927Z,1.20
2023-04-26T10:22:11.493Z,1.30
2023-04-26T10:24:38.740Z,1.58
2023-04-26T10:27:05.918Z,1.70
2023-04-26T10:29:56.510Z,1.30
2023-04-26T10:32:24.485Z,1.50
2023-04-26T10:35:12.350Z,1.63
2023-04-26T10:37:57.970Z,1.70
2023-04-26T10:40:26.179Z,1.88
2023-04-26T10:43:16.833Z,1.75
2023-04-26T10:45:45.048Z,1.38
2023-04-26T10:48:17.472Z,1.58
2023-04-26T10:51:05.454Z,1.80
2023-04-26T10:53:36.471Z,1.38
2023-04-26T10:56:03.880Z,1.58
2023-04-26T10:58:32.835Z,1.63
2023-04-26T11:01:06.522Z,1.60
2023-04-26T11:03:34.123Z,1.40
2023-04-26T11:06:01.665Z,1.73
2023-04-26T11:08:30.672Z,1.40
2023-04-26T11:11:03.859Z,1.60
2023-04-26T11:13:34.844Z,1.63
2023-04-26T11:16:04.236Z,1.48
2023-04-26T11:18:32.345Z,1.50
2023-04-26T11:20:59.705Z,1.40
2023-04-26T11:23:28.767Z,1.60
2023-04-26T11:26:03.501Z,1.73
2023-04-26T11:28:33.903Z,1.60
2023-04-26T11:31:02.115Z,1.33
2023-04-26T11:33:29.547Z,1.55
2023-04-26T11:35:59.344Z,1.80
2023-04-26T11:38:27.085Z,1.73
2023-04-26T11:40:55.896Z,1.73
2023-04-26T11:45:50.244Z,1.42
2023-04-26T11:48:17.644Z,1.55
2023-04-26T11:50:44.991Z,1.92
2023-04-26T11:53:12.613Z,1.48
2023-04-26T11:55:40.630Z,1.35
2023-04-26T11:58:11.647Z,1.48
2023-04-26T12:00:38.913Z,1.77
2023-04-26T12:03:11.296Z,1.60
2023-04-26T12:05:44.533Z,1.52
2023-04-26T12:08:12.573Z,1.40
2023-04-26T12:10:39.801Z,1.98
2023-04-26T12:13:07.011Z,2.15
2023-04-26T12:15:34.953Z,1.80
2023-04-26T12:18:08.807Z,1.80
2023-04-26T12:20:37.011Z,1.60
2023-04-26T12:23:05.755Z,1.50
2023-04-26T12:25:33.898Z,1.55
2023-04-26T12:28:01.735Z,1.60
2023-04-26T12:30:29.690Z,2.03
2023-04-26T12:33:05.688Z,1.88
2023-04-26T12:35:36.865Z,1.50
2023-04-26T12:38:04.212Z,1.67
2023-04-26T12:40:31.726Z,1.90
2023-04-26T12:42:59.583Z,1.63
2023-04-26T12:45:29.900Z,1.67
2023-04-26T12:47:57.309Z,1.83
2023-04-26T12:50:24.778Z,1.73
2023-04-26T12:52:52.066Z,2.10
2023-04-26T12:55:19.629Z,1.75
2023-04-26T12:57:47.091Z,1.70
2023-04-26T13:00:17.970Z,1.50
2023-04-26T13:02:46.692Z,1.58
2023-04-26T13:05:14.565Z,1.80
2023-04-26T13:07:43.535Z,2.10
2023-04-26T13:10:12.904Z,2.20
2023-04-26T13:13:20.403Z,1.70
2023-04-26T13:19:17.912Z,1.27
2023-04-26T13:21:45.247Z,1.95
2023-04-26T13:24:12.724Z,1.40
2023-04-26T13:26:40.125Z,1.67
2023-04-26T13:29:07.326Z,1.67
2023-04-26T13:31:34.782Z,1.73
2023-04-26T13:34:03.074Z,2.00
2023-04-26T13:36:30.305Z,1.60
2023-04-26T13:38:57.472Z,1.73
2023-04-26T13:41:24.932Z,1.52
2023-04-26T13:43:52.119Z,1.50
2023-04-26T13:46:19.356Z,1.60
2023-04-26T13:48:46.649Z,2.03
2023-04-26T13:51:13.890Z,1.50
2023-04-26T13:53:41.041Z,1.40
2023-04-26T13:56:09.498Z,1.63
2023-04-26T13:58:36.732Z,1.38
2023-04-26T14:01:04.424Z,1.30
2023-04-26T14:03:32.575Z,1.67
2023-04-26T14:05:59.837Z,2.03
2023-04-26T14:08:27.493Z,1.50
2023-04-26T14:10:54.689Z,1.83
2023-04-26T14:13:22.060Z,1.52
2023-04-26T14:15:49.403Z,1.60
2023-04-26T14:18:17.600Z,1.40
2023-04-26T14:20:49.555Z,1.83
2023-04-26T14:23:16.952Z,1.60
2023-04-26T14:25:44.214Z,1.90
2023-04-26T14:28:12.526Z,1.00
2023-04-26T14:30:39.731Z,1.50
2023-04-26T14:33:06.965Z,1.40
2023-04-26T14:35:34.180Z,1.83
2023-04-26T14:38:01.793Z,1.58
2023-04-26T14:40:29.180Z,1.50
2023-04-26T14:42:56.468Z,1.45
2023-04-26T14:45:27.863Z,1.45
2023-04-26T14:48:01.900Z,1.85
2023-04-26T14:50:30.308Z,1.55
2023-04-26T14:52:57.583Z,1.30
2023-04-26T14:55:27.022Z,1.27
2023-04-26T14:57:54.645Z,1.20
2023-04-26T15:00:22.916Z,1.50
2023-04-26T15:02:50.536Z,1.40
2023-04-26T15:05:17.901Z,1.90
2023-04-26T15:07:45.160Z,2.22
2023-04-26T15:10:12.330Z,1.83
2023-04-26T15:12:39.873Z,1.33
2023-04-26T15:15:07.592Z,1.80
2023-04-26T15:17:35.016Z,1.67
2023-04-26T15:20:02.455Z,1.30
2023-04-26T15:22:29.679Z,1.60
2023-04-26T15:24:56.989Z,1.23
2023-04-26T15:27:25.175Z,1.60
2023-04-26T15:29:52.372Z,1.15
2023-04-26T15:32:19.521Z,1.42
2023-04-26T15:34:46.738Z,1.15
2023-04-26T15:37:14.027Z,2.38
2023-04-26T15:39:43.584Z,1.65
2023-04-26T15:42:11.241Z,1.98
2023-04-26T15:44:38.372Z,1.58
2023-04-26T15:47:05.964Z,1.58
2023-04-26T15:49:33.118Z,1.77
2023-04-26T15:52:00.536Z,2.20
2023-04-26T15:54:27.730Z,1.65
2023-04-26T15:56:55.499Z,1.38
2023-04-26T15:59:24.002Z,4.40
2023-04-26T16:01:51.963Z,3.63
2023-04-26T16:07:00.522Z,1.50
2023-04-26T16:09:27.952Z,1.52
2023-04-26T16:11:55.355Z,1.60
2023-04-26T16:14:25.208Z,1.52
2023-04-26T16:16:52.585Z,1.50
2023-04-26T16:19:19.690Z,1.67
2023-04-26T16:21:47.812Z,0.98
2023-04-26T16:24:15.673Z,1.15
2023-04-26T16:26:43.378Z,1.17
2023-04-26T16:29:10.870Z,1.45
2023-04-26T16:31:38.159Z,3.33
2023-04-26T16:34:05.392Z,1.40
2023-04-26T16:36:33.094Z,1.65
2023-04-26T16:39:00.808Z,1.65
2023-04-26T16:41:37.426Z,3.40
2023-04-26T16:44:04.773Z,2.05
2023-04-26T16:46:34.637Z,2.22
2023-04-26T16:49:03.163Z,2.13
2023-04-26T16:51:30.349Z,2.25
2023-04-26T16:54:00.547Z,4.38
2023-04-26T16:56:28.123Z,1.73
2023-04-26T16:58:58.346Z,7.97
2023-04-26T17:04:19.387Z,3.28
2023-04-26T17:09:28.713Z,1.05
2023-04-26T17:11:56.242Z,1.80
2023-04-26T17:17:05.298Z,1.88
2023-04-26T17:19:33.009Z,2.85
2023-04-26T17:24:42.223Z,2.92
2023-04-26T17:27:09.851Z,5.15
2023-04-26T17:29:37.324Z,4.25
2023-04-26T17:32:05.498Z,3.28
2023-04-26T17:34:33.238Z,10.60
2023-04-26T17:42:55.606Z,1.70
2023-04-26T17:45:23.626Z,3.83
2023-04-26T17:47:50.998Z,1.58
2023-04-26T17:50:27.839Z,2.63
2023-04-26T17:52:55.054Z,2.90
2023-04-26T17:58:51.303Z,6.47
2023-04-26T18:01:20.189Z,5.10
2023-04-26T18:06:17.955Z,3.35
2023-04-26T18:08:48.031Z,1.70
2023-04-26T18:11:16.339Z,2.58
2023-04-26T18:13:53.956Z,2.05
2023-04-26T18:16:21.629Z,1.60
2023-04-26T18:18:48.916Z,2.30
2023-04-26T18:21:17.166Z,1.20
2023-04-26T18:23:47.743Z,2.28
2023-04-26T18:26:14.967Z,4.65
2023-04-26T18:28:44.975Z,1.90
2023-04-26T18:31:12.228Z,8.48
2023-04-26T18:33:39.530Z,4.03
2023-04-26T18:36:06.855Z,6.00
2023-04-26T18:38:34.297Z,2.67
2023-04-26T18:41:04.445Z,1.90
2023-04-26T18:43:31.658Z,2.72
2023-04-26T18:45:59.083Z,3.05
2023-04-26T18:48:26.358Z,3.15
2023-04-26T18:50:54.172Z,3.53
2023-04-26T18:53:22.485Z,2.00
2023-04-26T18:55:52.148Z,2.13
2023-04-26T18:58:19.423Z,3.08
2023-04-26T19:00:49.704Z,2.20
2023-04-26T19:03:17.395Z,2.22
2023-04-26T19:06:03.872Z,3.10
2023-04-26T19:08:31.036Z,2.90
2023-04-26T19:10:58.324Z,3.10
2023-04-26T19:13:25.903Z,3.03
2023-04-26T19:15:53.246Z,2.53
2023-04-26T19:18:20.520Z,7.65
2023-04-26T19:20:48.105Z,3.70
2023-04-26T19:23:15.485Z,2.60
2023-04-26T19:25:42.847Z,2.90
2023-04-26T19:28:10.021Z,2.70
2023-04-26T19:30:37.549Z,2.92
2023-04-26T19:33:04.846Z,3.20
2023-04-26T19:35:32.089Z,3.15
2023-04-26T19:37:59.426Z,2.50
2023-04-26T19:40:26.582Z,2.60
2023-04-26T19:42:53.796Z,2.03
2023-04-26T19:45:21.052Z,2.20
2023-04-26T19:47:48.570Z,2.20
2023-04-26T19:50:16.043Z,2.40
2023-04-26T19:52:43.224Z,2.50
2023-04-26T19:55:10.487Z,3.20
2023-04-26T19:57:37.641Z,2.30
2023-04-26T20:00:07.488Z,2.50
2023-04-26T20:02:35.048Z,2.33
2023-04-26T20:05:02.222Z,4.18
2023-04-26T20:07:29.477Z,5.05
2023-04-26T20:09:56.694Z,3.08
2023-04-26T20:12:24.329Z,3.10
2023-04-26T20:14:51.606Z,2.72
2023-04-26T20:17:18.820Z,2.90
2023-04-26T20:19:46.040Z,2.70
2023-04-26T20:22:13.176Z,2.72
2023-04-26T20:24:40.409Z,3.17
2023-04-26T20:27:07.729Z,3.17
2023-04-26T20:29:34.881Z,2.78
2023-04-26T20:32:02.147Z,2.72
2023-04-26T20:34:29.333Z,3.30
2023-04-26T20:36:57.162Z,3.30
2023-04-26T20:39:24.329Z,3.65
2023-04-26T20:41:52.122Z,4.50
2023-04-26T20:44:19.604Z,2.92
2023-04-26T20:46:46.835Z,3.00
2023-04-26T20:49:14.401Z,3.38
2023-04-26T20:51:41.692Z,4.00
2023-04-26T20:54:08.900Z,4.47
2023-04-26T20:56:36.670Z,3.47
2023-04-26T20:59:03.834Z,2.90
2023-04-26T21:01:31.196Z,3.60
2023-04-26T21:04:01.107Z,3.67
2023-04-26T21:06:28.557Z,3.30
2023-04-26T21:08:55.921Z,4.28
2023-04-26T21:11:23.041Z,3.55
2023-04-26T21:13:50.584Z,3.05
2023-04-26T21:16:17.776Z,3.25
2023-04-26T21:18:44.986Z,3.25
2023-04-26T21:21:12.157Z,3.50
2023-04-26T21:23:39.259Z,3.40
2023-04-26T21:26:06.508Z,3.90
2023-04-26T21:28:33.880Z,3.72
2023-04-26T21:31:07.530Z,3.40
2023-04-26T21:33:35.190Z,3.35
2023-04-26T21:36:02.374Z,3.28
2023-04-26T21:38:29.600Z,3.60
2023-04-26T21:40:56.805Z,3.60
2023-04-26T21:43:25.063Z,3.17
2023-04-26T21:45:53.188Z,3.55
2023-04-26T21:48:20.519Z,3.33
2023-04-26T21:50:50.942Z,2.80
2023-04-26T21:53:18.383Z,3.05
2023-04-26T21:55:51.222Z,3.65
2023-04-26T21:58:18.568Z,3.88
2023-04-26T22:00:46.619Z,4.18
2023-04-26T22:03:14.376Z,3.30
2023-04-26T22:05:41.787Z,4.95
2023-04-26T22:08:09.188Z,6.22
2023-04-26T22:10:36.448Z,5.57
2023-04-26T22:13:03.693Z,5.97
2023-04-26T22:15:30.897Z,3.92
2023-04-26T22:17:58.226Z,3.08
2023-04-26T22:20:26.747Z,3.53
2023-04-26T22:22:54.095Z,3.45
2023-04-26T22:25:21.388Z,3.45
2023-04-26T22:27:48.969Z,3.85
2023-04-26T22:30:25.430Z,2.85
2023-04-26T22:32:55.024Z,2.63
2023-04-26T22:35:22.818Z,2.55
2023-04-26T22:37:50.061Z,2.30
2023-04-26T22:40:17.757Z,2.80
2023-04-26T22:42:45.460Z,3.10
2023-04-26T22:45:13.192Z,2.85
2023-04-26T22:47:41.053Z,3.03
2023-04-26T22:50:08.938Z,2.80
2023-04-26T22:52:36.775Z,2.65
2023-04-26T22:55:04.013Z,2.60
2023-04-26T22:57:31.655Z,2.80
2023-04-26T22:59:59.040Z,2.58
2023-04-26T23:02:26.418Z,2.38
2023-04-26T23:04:56.819Z,3.05
2023-04-26T23:07:24.155Z,2.95
2023-04-26T23:09:51.601Z,2.80
2023-04-26T23:12:23.677Z,3.25
2023-04-26T23:14:50.961Z,3.40
2023-04-26T23:17:20.439Z,3.95
2023-04-26T23:19:47.805Z,3.28
2023-04-26T23:22:15.836Z,3.17
2023-04-26T23:27:23.274Z,2.75
2023-04-26T23:29:51.622Z,2.30
2023-04-26T23:32:18.782Z,2.13
2023-04-26T23:34:45.927Z,2.10
2023-04-26T23:37:13.072Z,2.40
2023-04-26T23:39:40.249Z,2.03
2023-04-26T23:42:07.411Z,2.47
2023-04-26T23:44:34.661Z,3.00
2023-04-26T23:47:01.793Z,2.53
2023-04-26T23:49:29.025Z,2.53
2023-04-26T23:51:56.206Z,2.38
2023-04-26T23:54:23.462Z,2.65
2023-04-26T23:56:50.618Z,2.60
2023-04-26T23:59:17.741Z,2.70
